A- A+ FrançaisEnglishEspañol中国

Services sur Internet Soldes sur Internet Des idées de cadeaux Météo Météo aéro

La météo à : Autours de vous Tarbes-Lourdes-PyrénéesValreas-Visan Besancon-La-VezeRennes-St-Jacques

La météo aéronautique pour les pilotes, la préparation du vol avec les METAR (METeorological Aerodrome Report, message d'observation des conditions météorologiques pour l'aviation) et Les TAF (Terminal Aerodrome Forecast : message de prévision à court terme des conditions météorologiques pour l'aviation). Et les autres ressources comme les VAC (Visual Approch Chart) et les NOTAM (Notice To Airman) pour préprer les vols.

Aéroport Bobo Dioulasso (Burkina Faso) / OACI DFOO/ IATA BOY

L'altitude de l'aéroport Bobo Dioulasso est de 461 m = 1512 ft. Il est situé à proximité de Bobo Dioulasso (Burkina Faso). La météo générale à 5 jours est disponible pour Orodara situé à 69.9 km.

METAR de l'aéroport Bobo Dioulasso - DFOO

DFOO 100000Z 00000KT CAVOK 23/09 Q1014

Décodage du METAR de l'aéroport Bobo Dioulasso (BF)

METAR émis par DFOO le mardi 10 décembre 2019 à 00:00 heure TU, il y a 24 minutes.

La visibilité est de supérieure à 10 km = supérieure à 6.2 sm.

La température est de 23°C = 73 °F et le point rosée est de 9°C = 48 °F . Ce qui correspond à 41% d'humidité relative.

Le QNH est de 1014 hPa = 29.94 inHg

Vent de 0 kt = 0 km/h, orienté à 0°.

Pas de nuages.

TAF de l'aéroport Bobo Dioulasso - DFOO

DFOO 092300Z 1000/1024 03008KT 8000 NSC

DFOO 092300Z 1000/1024 03008KT 8000 NSC

Aéroport à proximité de Bobo Dioulasso

Météo générale à 5 jours à Orodara (69.9 km)Aéroport Sideradougou (55 km)Aéroport Banfora (68 km)Aéroport Orodara (69 km)Aéroport Hounde (96 km)Aéroport Diebougou (120 km)Aéroport Loumana (129 km)

Vue aérienne de l'aéroport Bobo Dioulasso

NOTAM de l'aéroport Bobo Dioulasso

Les NOTAM sont fournis sans aucune garantie de leur actualité. Le pilote est le seul responsable de la vérification de sa validité avant de l'utiliser opérationnellement pour préparer un vol ou l'utiliser lors de sa navigation.

Pas de NOTAM

Sources des données